Time;durP1;ratioP1;P1;durP2;ratioP2;P2;SDS_P1;SDS_P2;PMS_P1;PMS_P2;Temp;Humidity;BMP_temperature;BMP_pressure;BME280_temperature;BME280_humidity;BME280_pressure;Samples;Min_cycle;Max_cycle;Signal;HPM_P1;HPM_P2
2023/04/23 00:00:29;;;;;;;8.88;3.25;;;;;;;19.76;49.71;98178.00;4832736;29;20145;-58
2023/04/23 00:03:02;;;;;;;9.50;2.80;;;;;;;19.73;49.74;98176.66;4817259;29;20854;-58
2023/04/23 00:05:33;;;;;;;5.50;2.50;;;;;;;19.71;49.74;98182.28;4833119;29;20058;-58
2023/04/23 00:08:03;;;;;;;7.55;3.25;;;;;;;19.68;49.66;98185.50;4817913;29;20638;-55
2023/04/23 00:10:33;;;;;;;7.85;2.72;;;;;;;19.69;49.82;98184.41;4828267;29;20683;-56
2023/04/23 00:13:03;;;;;;;6.22;2.60;;;;;;;19.67;49.80;98191.13;4832018;29;20053;-56
2023/04/23 00:15:33;;;;;;;6.90;3.10;;;;;;;19.64;50.39;98187.09;4833055;29;20053;-55
2023/04/23 00:18:02;;;;;;;7.25;3.20;;;;;;;19.62;49.96;98189.22;4831862;29;20057;-58
2023/04/23 00:20:33;;;;;;;5.68;3.40;;;;;;;19.63;50.46;98195.41;4832231;29;20058;-57
2023/04/23 00:23:02;;;;;;;6.63;3.65;;;;;;;19.61;50.72;98192.97;4832660;29;20050;-58
2023/04/23 00:25:32;;;;;;;8.68;3.60;;;;;;;19.59;50.82;98199.69;4832369;29;20511;-56
2023/04/23 00:28:01;;;;;;;7.05;3.80;;;;;;;19.62;50.56;98199.97;4833361;29;20077;-56
2023/04/23 00:30:30;;;;;;;7.35;3.80;;;;;;;19.63;50.57;98214.22;4832425;29;20459;-55
2023/04/23 00:33:00;;;;;;;11.00;4.57;;;;;;;19.62;50.67;98218.78;4834917;29;20046;-56
2023/04/23 00:35:29;;;;;;;10.15;4.18;;;;;;;19.63;50.60;98222.28;4818893;29;20053;-58
2023/04/23 00:37:58;;;;;;;7.60;4.43;;;;;;;19.61;50.59;98219.84;4832825;29;20672;-57
2023/04/23 00:40:28;;;;;;;10.73;5.22;;;;;;;19.64;50.54;98235.47;4833990;29;20129;-58
2023/04/23 00:42:58;;;;;;;9.98;4.25;;;;;;;19.65;50.71;98231.69;4803665;29;20046;-58
2023/04/23 00:45:28;;;;;;;7.88;5.07;;;;;;;19.65;50.66;98237.06;4818261;29;20106;-57
2023/04/23 00:47:57;;;;;;;11.07;4.97;;;;;;;19.65;51.25;98242.41;4820272;29;20054;-56
2023/04/23 00:50:27;;;;;;;9.63;4.88;;;;;;;19.65;51.23;98245.13;4820953;29;20371;-51
2023/04/23 00:52:56;;;;;;;10.25;5.25;;;;;;;19.66;51.24;98249.41;4835801;29;20053;-55
2023/04/23 00:55:26;;;;;;;11.77;5.55;;;;;;;19.67;51.17;98255.59;4820248;29;20122;-53
2023/04/23 00:57:57;;;;;;;7.55;4.85;;;;;;;19.68;51.59;98262.59;4836898;29;20064;-55
2023/04/23 01:00:26;;;;;;;9.75;5.30;;;;;;;19.69;51.52;98273.06;4836290;29;20046;-56
2023/04/23 01:02:57;;;;;;;13.95;6.47;;;;;;;19.71;51.79;98270.94;4834617;29;20081;-56
2023/04/23 01:05:27;;;;;;;14.50;5.60;;;;;;;19.72;51.47;98274.44;4820293;29;20763;-56
2023/04/23 01:07:57;;;;;;;9.82;5.30;;;;;;;19.74;51.43;98278.47;4820696;29;20789;-55
2023/04/23 01:10:26;;;;;;;8.98;5.60;;;;;;;19.76;51.58;98274.72;4820673;29;20068;-56
2023/04/23 01:12:56;;;;;;;10.73;6.15;;;;;;;19.78;51.85;98275.28;4836187;29;20080;-58
2023/04/23 01:15:25;;;;;;;13.15;5.88;;;;;;;19.81;51.62;98278.25;4819470;29;20141;-56
2023/04/23 01:18:53;;;;;;;14.38;6.03;;;;;;;19.83;51.71;98286.84;4835200;29;20556;-55
2023/04/23 01:21:24;;;;;;;10.48;5.40;;;;;;;19.88;51.85;98294.13;4818921;29;20082;-55
2023/04/23 01:23:54;;;;;;;9.45;5.68;;;;;;;19.90;51.87;98292.81;4801040;29;20046;-55
2023/04/23 01:26:24;;;;;;;12.55;5.28;;;;;;;19.95;52.03;98297.41;4813091;29;20095;-59
2023/04/23 01:28:53;;;;;;;11.45;5.50;;;;;;;19.97;52.10;98297.91;4802892;29;20129;-57
2023/04/23 01:31:23;;;;;;;7.95;4.60;;;;;;;20.04;52.27;98301.19;4817801;29;20070;-58
2023/04/23 01:33:54;;;;;;;10.93;5.05;;;;;;;20.09;52.50;98299.31;4834222;29;20205;-57
2023/04/23 01:36:24;;;;;;;10.68;5.50;;;;;;;20.13;52.41;98297.75;4835246;29;20073;-57
2023/04/23 01:38:54;;;;;;;11.60;4.43;;;;;;;20.20;52.38;98308.22;4819224;29;20402;-58
2023/04/23 01:41:55;;;;;;;8.50;4.25;;;;;;;20.28;52.12;98313.09;4835473;29;20110;-60
2023/04/23 01:44:26;;;;;;;9.98;3.97;;;;;;;20.32;52.29;98306.16;4818584;29;20050;-57
2023/04/23 01:46:56;;;;;;;7.25;3.78;;;;;;;20.39;52.27;98308.59;4834758;29;20053;-59
2023/04/23 01:49:26;;;;;;;6.70;3.58;;;;;;;20.47;51.80;98316.16;4819295;29;20046;-57
2023/04/23 01:51:55;;;;;;;11.88;4.13;;;;;;;20.56;52.29;98319.94;4804037;29;20049;-55
2023/04/23 01:54:25;;;;;;;7.53;3.63;;;;;;;20.65;52.06;98320.22;4833478;29;20114;-58
2023/04/23 01:57:29;;;;;;;7.35;3.92;;;;;;;20.85;51.60;98314.84;4802466;29;20490;-57
2023/04/23 02:00:11;;;;;;;6.20;3.42;;;;;;;20.97;51.44;98321.63;4813144;29;20054;-61
2023/04/23 02:02:43;;;;;;;8.88;3.42;;;;;;;21.06;51.05;98327.28;4814805;29;20058;-57
2023/04/23 02:05:15;;;;;;;10.57;3.92;;;;;;;21.22;50.72;98322.69;4815777;29;20050;-60
2023/04/23 02:07:46;;;;;;;7.78;3.00;;;;;;;21.35;49.58;98331.03;4821544;29;20065;-58
2023/04/23 02:10:16;;;;;;;6.78;3.08;;;;;;;21.47;49.29;98336.94;4834778;29;20141;-59
2023/04/23 02:12:45;;;;;;;8.77;2.80;;;;;;;21.59;49.06;98341.25;4821873;29;20138;-59
2023/04/23 02:15:15;;;;;;;8.13;2.50;;;;;;;21.86;48.58;98344.44;4832670;29;20137;-59
2023/04/23 02:17:45;;;;;;;5.60;2.42;;;;;;;22.79;45.83;98339.22;4805828;29;20103;-60
2023/04/23 02:20:15;;;;;;;5.28;2.50;;;;;;;23.66;42.52;98356.34;4814648;29;20054;-59
2023/04/23 02:22:45;;;;;;;10.82;2.60;;;;;;;24.33;41.20;98351.84;4820771;29;20149;-59
2023/04/23 02:25:16;;;;;;;5.03;2.10;;;;;;;24.75;40.49;98354.50;4818566;29;20419;-61
2023/04/23 02:27:46;;;;;;;7.32;2.45;;;;;;;25.19;40.06;98356.03;4823890;29;20567;-60
2023/04/23 02:30:15;;;;;;;5.20;2.42;;;;;;;25.77;39.45;98357.22;4818323;29;20111;-58
2023/04/23 02:32:45;;;;;;;4.95;2.13;;;;;;;26.50;37.71;98350.13;4833403;29;20069;-58
2023/04/23 02:35:14;;;;;;;4.57;2.20;;;;;;;27.07;36.42;98354.81;4802139;29;20479;-57
2023/04/23 02:37:44;;;;;;;4.75;2.08;;;;;;;27.52;35.63;98352.13;4812848;29;20062;-58
2023/04/23 02:40:13;;;;;;;4.68;2.13;;;;;;;27.87;35.13;98353.91;4800241;29;20062;-57
2023/04/23 02:42:43;;;;;;;5.07;2.60;;;;;;;27.97;34.99;98361.75;4796983;29;20718;-57
2023/04/23 02:45:19;;;;;;;6.35;2.17;;;;;;;27.84;35.10;98367.34;4797797;29;20066;-58
2023/04/23 02:47:52;;;;;;;4.57;2.30;;;;;;;27.39;35.91;98363.84;4803753;29;20054;-57
2023/04/23 02:50:21;;;;;;;6.30;2.40;;;;;;;27.20;36.62;98369.47;4815927;29;21231;-58
2023/04/23 02:52:51;;;;;;;7.25;2.42;;;;;;;27.38;36.73;98367.66;4818551;29;20058;-59
2023/04/23 02:55:20;;;;;;;6.00;2.40;;;;;;;27.28;36.72;98371.44;4833153;29;20129;-57
2023/04/23 02:57:50;;;;;;;5.40;2.28;;;;;;;26.86;37.49;98375.44;4803762;29;20061;-59
2023/04/23 03:00:20;;;;;;;6.03;2.30;;;;;;;26.32;38.66;98376.28;4817362;29;20069;-58
2023/04/23 03:02:50;;;;;;;4.13;2.13;;;;;;;25.76;39.13;98382.75;4830887;29;20042;-58
2023/04/23 03:05:20;;;;;;;6.78;2.10;;;;;;;25.40;40.04;98381.72;4812806;29;20049;-57
2023/04/23 03:07:49;;;;;;;5.75;2.13;;;;;;;24.90;41.01;98384.13;4833911;29;20106;-59
2023/04/23 03:10:18;;;;;;;4.70;2.20;;;;;;;24.56;41.67;98378.06;4816563;29;20081;-57
2023/04/23 03:12:48;;;;;;;5.03;2.40;;;;;;;24.52;42.02;98379.72;4811556;29;20136;-59
2023/04/23 03:15:17;;;;;;;5.07;2.22;;;;;;;24.26;43.55;98383.84;4833799;29;20045;-63
2023/04/23 03:17:49;;;;;;;4.90;2.33;;;;;;;24.22;44.08;98382.81;4817820;29;20058;-60
2023/04/23 03:20:20;;;;;;;5.20;2.38;;;;;;;24.08;45.06;98393.50;4816353;29;20147;-58
2023/04/23 03:22:49;;;;;;;5.22;2.67;;;;;;;24.02;44.88;98391.94;4816794;29;20050;-59
2023/04/23 03:25:21;;;;;;;7.28;2.50;;;;;;;24.10;45.06;98392.13;4802790;29;20110;-58
2023/04/23 03:27:51;;;;;;;6.03;2.15;;;;;;;24.08;43.21;98399.72;4817120;29;20566;-60
2023/04/23 03:30:52;;;;;;;5.78;1.98;;;;;;;23.98;42.91;98405.25;4832894;29;20102;-59
2023/04/23 03:33:21;;;;;;;6.55;2.20;;;;;;;24.02;43.25;98409.00;4802806;29;20061;-59
2023/04/23 03:35:51;;;;;;;7.22;2.05;;;;;;;24.01;42.50;98407.38;4833027;29;20058;-56
2023/04/23 03:38:26;;;;;;;5.28;2.58;;;;;;;24.15;43.12;98408.34;4832993;29;20145;-58
2023/04/23 03:40:57;;;;;;;10.45;2.58;;;;;;;24.27;41.22;98416.06;4832886;29;20518;-58
2023/04/23 03:43:28;;;;;;;6.13;3.10;;;;;;;24.32;41.66;98423.31;4810466;29;20058;-57
2023/04/23 03:46:15;;;;;;;6.35;2.42;;;;;;;24.39;37.60;98427.28;4819708;29;20053;-59
2023/04/23 03:48:45;;;;;;;5.88;2.42;;;;;;;24.39;41.40;98431.88;4827326;29;20137;-57
2023/04/23 03:51:24;;;;;;;8.52;2.70;;;;;;;24.24;42.27;98432.06;4807499;29;20534;-58
2023/04/23 03:53:54;;;;;;;10.93;2.63;;;;;;;24.27;42.66;98445.81;4838968;29;20638;-59
2023/04/23 03:56:35;;;;;;;7.18;2.90;;;;;;;24.26;42.02;98446.91;4814110;29;20792;-57
2023/04/23 03:59:36;;;;;;;9.60;2.60;;;;;;;24.43;39.97;98449.19;4796317;29;20487;-58
2023/04/23 04:02:06;;;;;;;9.55;3.05;;;;;;;24.61;40.76;98448.41;4800966;29;20046;-59
2023/04/23 04:04:35;;;;;;;5.97;2.40;;;;;;;24.60;39.65;98450.31;4811673;29;20051;-59
2023/04/23 04:07:06;;;;;;;8.30;2.85;;;;;;;24.66;41.83;98439.41;4807322;29;20058;-59
2023/04/23 04:09:36;;;;;;;4.82;2.80;;;;;;;24.75;41.79;98445.78;4788417;29;20528;-58
2023/04/23 04:12:06;;;;;;;5.22;2.30;;;;;;;24.92;42.03;98446.13;4816800;29;20126;-60
2023/04/23 04:14:35;;;;;;;3.35;2.10;;;;;;;25.07;40.24;98447.84;4817579;29;20348;-59
2023/04/23 04:17:04;;;;;;;5.03;2.25;;;;;;;25.04;41.50;98439.22;4816163;29;20229;-58
2023/04/23 04:19:34;;;;;;;7.68;2.45;;;;;;;25.26;40.37;98448.66;4817475;29;20058;-58
2023/04/23 04:22:04;;;;;;;5.63;1.90;;;;;;;25.36;41.44;98451.19;4818345;29;20050;-57
2023/04/23 04:24:34;;;;;;;8.73;2.08;;;;;;;25.65;39.66;98443.72;4817444;29;20123;-59
2023/04/23 04:27:04;;;;;;;6.65;2.20;;;;;;;25.86;40.00;98450.41;4814436;29;20157;-58
2023/04/23 04:29:40;;;;;;;4.82;2.00;;;;;;;25.94;40.12;98446.19;4807136;29;20062;-57
2023/04/23 04:32:10;;;;;;;3.20;2.10;;;;;;;26.51;36.46;98449.53;4816816;29;20067;-58
2023/04/23 04:34:39;;;;;;;9.68;1.73;;;;;;;26.59;38.69;98446.91;4813034;29;20457;-59
2023/04/23 04:37:10;;;;;;;7.13;2.13;;;;;;;26.57;39.29;98451.00;4799398;29;20634;-59
2023/04/23 04:39:39;;;;;;;6.95;1.95;;;;;;;26.80;38.33;98452.69;4817941;29;20083;-60
2023/04/23 04:42:14;;;;;;;7.68;2.28;;;;;;;26.92;39.36;98449.50;4813583;29;20141;-59
2023/04/23 04:44:44;;;;;;;4.97;1.42;;;;;;;27.39;35.55;98448.97;4815860;29;20055;-59
2023/04/23 04:47:15;;;;;;;4.82;1.80;;;;;;;27.15;38.44;98443.81;4815368;29;20141;-60
2023/04/23 04:49:45;;;;;;;4.88;2.13;;;;;;;27.55;36.32;98442.06;4812375;29;20046;-58
2023/04/23 04:52:14;;;;;;;3.72;1.58;;;;;;;27.63;35.95;98441.31;4805206;29;20050;-59
2023/04/23 04:54:44;;;;;;;4.32;1.70;;;;;;;28.01;33.45;98439.00;4820212;29;20069;-58
2023/04/23 04:57:13;;;;;;;4.10;1.48;;;;;;;27.94;35.77;98437.81;4833925;29;20054;-59
2023/04/23 04:59:42;;;;;;;4.47;1.58;;;;;;;27.94;35.18;98433.19;4828429;29;20589;-59
2023/04/23 05:02:11;;;;;;;11.75;2.20;;;;;;;28.20;35.54;98436.06;4826395;29;20053;-59
2023/04/23 05:04:41;;;;;;;9.27;1.90;;;;;;;27.94;36.24;98433.19;4832102;29;20073;-60
2023/04/23 05:07:11;;;;;;;3.80;1.67;;;;;;;28.17;33.08;98435.88;4820028;29;20054;-59
2023/04/23 05:09:40;;;;;;;4.05;1.75;;;;;;;28.49;35.44;98433.63;4819056;29;20061;-61
2023/04/23 05:12:12;;;;;;;3.08;1.60;;;;;;;28.56;36.12;98436.69;4827353;29;20054;-61
2023/04/23 05:14:42;;;;;;;8.77;1.80;;;;;;;28.36;34.40;98439.19;4836349;29;20557;-60
2023/04/23 05:17:38;;;;;;;4.43;1.90;;;;;;;28.50;35.85;98434.44;4832249;29;20038;-58
2023/04/23 05:20:11;;;;;;;3.97;1.80;;;;;;;28.59;36.25;98436.03;4829649;29;20093;-59
2023/04/23 05:22:42;;;;;;;7.47;1.88;;;;;;;28.85;35.09;98441.63;4829488;29;20050;-59
2023/04/23 05:25:12;;;;;;;3.20;1.63;;;;;;;28.95;35.75;98440.47;4828122;29;20133;-61
2023/04/23 05:27:42;;;;;;;5.03;1.60;;;;;;;28.98;35.28;98442.59;4828758;29;20041;-59
2023/04/23 05:30:12;;;;;;;5.25;1.70;;;;;;;28.94;35.52;98441.63;4826066;29;20053;-59
2023/04/23 05:32:41;;;;;;;4.88;2.22;;;;;;;28.93;35.48;98435.38;4832915;29;20394;-59
2023/04/23 05:35:11;;;;;;;4.88;2.30;;;;;;;29.19;33.44;98434.56;4830049;29;20109;-60
2023/04/23 05:38:07;;;;;;;4.15;2.10;;;;;;;29.15;35.51;98431.69;4836346;29;20053;-59
2023/04/23 05:40:37;;;;;;;4.68;1.90;;;;;;;29.03;34.55;98439.72;4830986;29;20046;-59
2023/04/23 05:43:07;;;;;;;4.28;1.80;;;;;;;29.11;34.02;98438.91;4831364;29;20092;-58
2023/04/23 05:45:36;;;;;;;5.68;2.00;;;;;;;28.80;36.50;98436.31;4835242;29;20045;-58
2023/04/23 05:48:05;;;;;;;4.45;2.00;;;;;;;28.40;35.64;98432.78;4818754;29;20048;-60
2023/04/23 05:50:35;;;;;;;4.38;1.80;;;;;;;28.21;36.81;98434.16;4812606;29;20118;-60
2023/04/23 05:53:04;;;;;;;5.95;2.00;;;;;;;28.37;37.89;98427.97;4813476;29;20534;-60
2023/04/23 05:55:34;;;;;;;5.57;1.80;;;;;;;28.36;36.78;98429.09;4813735;29;20153;-61
2023/04/23 05:58:05;;;;;;;7.93;2.00;;;;;;;28.04;37.86;98427.47;4794268;29;20144;-61
2023/04/23 06:00:35;;;;;;;5.25;1.55;;;;;;;28.22;39.02;98428.41;4804300;29;20047;-61
2023/04/23 06:03:06;;;;;;;5.43;1.60;;;;;;;28.14;35.59;98426.44;4828949;29;20042;-63
2023/04/23 06:05:36;;;;;;;7.60;1.85;;;;;;;28.19;38.08;98437.19;4825040;29;20055;-60
2023/04/23 06:08:06;;;;;;;6.53;2.30;;;;;;;28.16;39.54;98428.84;4812117;29;20042;-61
2023/04/23 06:11:03;;;;;;;2.97;1.40;;;;;;;27.77;39.04;98435.81;4820923;29;20076;-61
2023/04/23 06:14:09;;;;;;;4.57;1.80;;;;;;;28.05;37.70;98431.81;4798342;29;20073;-58
2023/04/23 06:16:46;;;;;;;8.00;1.92;;;;;;;27.79;38.86;98422.72;4829989;29;20057;-56
2023/04/23 06:19:17;;;;;;;8.38;2.10;;;;;;;27.86;39.85;98425.78;4823436;29;20050;-59
2023/04/23 06:22:51;;;;;;;6.10;1.83;;;;;;;28.27;39.00;98427.44;4826371;29;20114;-60
2023/04/23 06:26:04;;;;;;;;;;;;;;;28.63;36.67;98429.97;4831249;29;20387;-58
2023/04/23 06:28:53;;;;;;;3.53;1.80;;;;;;;28.72;31.40;98430.84;4809924;29;20027;-58
2023/04/23 06:31:36;;;;;;;8.55;1.75;;;;;;;29.06;35.21;98428.16;4829842;29;20818;-57
2023/04/23 06:34:05;;;;;;;3.60;1.90;;;;;;;29.75;27.34;98428.13;4824381;29;20065;-54
2023/04/23 06:36:35;;;;;;;7.13;2.10;;;;;;;30.16;29.42;98419.38;4827466;29;20058;-56
2023/04/23 06:39:04;;;;;;;4.00;1.92;;;;;;;30.01;26.78;98412.50;4806053;29;20149;-54
2023/04/23 06:41:33;;;;;;;4.20;1.95;;;;;;;30.03;34.33;98407.53;4825046;29;20168;-57
2023/04/23 06:44:12;;;;;;;6.97;2.30;;;;;;;30.01;24.27;98400.78;4826216;29;20145;-58
2023/04/23 06:46:51;;;;;;;4.88;1.50;;;;;;;30.12;31.56;98404.75;4826440;29;20075;-57
2023/04/23 06:49:21;;;;;;;11.15;1.92;;;;;;;30.27;29.50;98399.53;4828379;29;22669;-60
2023/04/23 06:51:50;;;;;;;7.55;2.13;;;;;;;30.14;34.62;98406.03;4806243;29;20058;-59
2023/04/23 06:54:19;;;;;;;3.45;1.50;;;;;;;30.32;31.24;98399.38;4806666;29;20102;-56
2023/04/23 06:56:49;;;;;;;10.30;1.77;;;;;;;29.83;34.88;98400.00;4818130;29;20110;-54
2023/04/23 06:59:19;;;;;;;6.22;1.45;;;;;;;29.57;36.22;98400.06;4823852;29;20064;-60
2023/04/23 07:01:52;;;;;;;3.42;1.40;;;;;;;29.35;35.31;98392.88;4807163;29;20054;-60
2023/04/23 07:04:21;;;;;;;9.60;1.73;;;;;;;29.79;25.16;98385.38;4831546;29;20053;-60
2023/04/23 07:06:50;;;;;;;6.32;1.63;;;;;;;30.32;24.36;98388.44;4836334;29;20042;-59
2023/04/23 07:09:20;;;;;;;4.03;1.65;;;;;;;30.39;21.72;98392.59;4812959;29;21332;-61
2023/04/23 07:11:49;;;;;;;5.65;2.00;;;;;;;30.02;29.79;98389.53;4833091;29;20053;-59
2023/04/23 07:14:18;;;;;;;2.78;1.45;;;;;;;29.98;27.87;98390.50;4836568;29;20114;-57
2023/04/23 07:16:48;;;;;;;3.80;1.60;;;;;;;30.19;22.70;98384.00;4840656;29;20137;-60
2023/04/23 07:19:17;;;;;;;4.78;2.15;;;;;;;29.92;31.04;98397.31;4836058;29;20046;-60
2023/04/23 07:21:46;;;;;;;10.23;2.10;;;;;;;29.43;34.62;98392.06;4804555;29;20510;-58
2023/04/23 07:24:16;;;;;;;7.05;1.70;;;;;;;29.58;29.62;98398.13;4829037;29;20066;-57
2023/04/23 07:26:45;;;;;;;6.30;2.30;;;;;;;29.43;31.40;98386.59;4827975;29;20061;-59
2023/04/23 07:29:15;;;;;;;18.25;2.40;;;;;;;29.37;35.08;98387.91;4824749;29;20050;-60
2023/04/23 07:31:46;;;;;;;6.60;1.67;;;;;;;29.73;25.55;98381.25;4809335;29;20168;-60
2023/04/23 07:34:15;;;;;;;5.68;1.55;;;;;;;29.97;27.26;98381.50;4809601;29;20050;-60
2023/04/23 07:36:45;;;;;;;4.50;1.50;;;;;;;30.44;22.54;98381.47;4828647;29;20137;-61
2023/04/23 07:39:15;;;;;;;4.97;1.70;;;;;;;30.45;27.65;98374.91;4813620;29;20669;-58
2023/04/23 07:41:44;;;;;;;10.70;2.17;;;;;;;30.43;29.83;98379.88;4830478;29;20472;-58
2023/04/23 07:44:14;;;;;;;3.25;1.85;;;;;;;30.41;28.14;98379.38;4830393;29;20561;-58
2023/04/23 07:46:44;;;;;;;2.50;1.25;;;;;;;30.19;26.78;98381.25;4805613;29;20062;-59
2023/04/23 07:49:13;;;;;;;5.82;2.35;;;;;;;29.75;33.86;98381.72;4812926;29;20054;-61
2023/04/23 07:51:42;;;;;;;5.93;1.70;;;;;;;29.39;28.17;98379.38;4826840;29;20060;-60
2023/04/23 07:54:12;;;;;;;18.92;2.50;;;;;;;29.68;25.32;98386.88;4831478;29;20064;-59
2023/04/23 07:56:41;;;;;;;7.82;2.20;;;;;;;29.67;27.23;98386.06;4832663;29;20639;-59
2023/04/23 07:59:11;;;;;;;9.18;3.00;;;;;;;29.44;35.19;98380.03;4827937;29;20042;-60
2023/04/23 08:01:40;;;;;;;5.60;1.50;;;;;;;29.93;22.75;98379.75;4836779;29;20057;-58
2023/04/23 08:04:11;;;;;;;5.78;1.75;;;;;;;30.23;21.78;98381.41;4841684;29;20145;-61
2023/04/23 08:06:42;;;;;;;5.63;2.30;;;;;;;30.38;29.19;98375.38;4837631;29;20064;-61
2023/04/23 08:09:11;;;;;;;3.15;1.60;;;;;;;29.73;21.44;98376.59;4820469;29;20058;-58
2023/04/23 08:11:40;;;;;;;8.05;1.63;;;;;;;29.98;26.40;98377.66;4834665;29;20062;-61
2023/04/23 08:14:10;;;;;;;3.95;1.90;;;;;;;29.86;27.47;98372.06;4830989;29;20061;-60
2023/04/23 08:16:39;;;;;;;5.57;1.88;;;;;;;29.52;31.47;98361.25;4838452;29;20053;-60
2023/04/23 08:19:09;;;;;;;5.78;2.13;;;;;;;29.74;21.86;98369.22;4838552;29;20073;-58
2023/04/23 08:21:39;;;;;;;3.35;2.55;;;;;;;29.35;30.13;98362.06;4816330;29;20053;-59
2023/04/23 08:24:08;;;;;;;5.85;2.10;;;;;;;29.26;31.36;98369.41;4832759;29;20054;-56
2023/04/23 08:26:37;;;;;;;6.72;1.95;;;;;;;29.31;31.16;98361.91;4827329;29;20083;-57
2023/04/23 08:29:07;;;;;;;3.83;1.80;;;;;;;28.89;32.92;98366.22;4833472;29;20771;-56
2023/04/23 08:31:38;;;;;;;4.25;1.90;;;;;;;29.16;27.69;98367.03;4809132;29;20065;-55
2023/04/23 08:34:08;;;;;;;2.45;1.75;;;;;;;28.82;33.70;98363.16;4815089;29;20050;-57
2023/04/23 08:36:37;;;;;;;3.88;1.52;;;;;;;28.92;31.17;98356.59;4815292;29;20150;-55
2023/04/23 08:39:06;;;;;;;3.78;2.22;;;;;;;28.59;34.69;98358.94;4814980;29;20050;-58
2023/04/23 08:41:43;;;;;;;8.15;1.73;;;;;;;28.61;31.57;98353.16;4825368;29;20057;-57
2023/04/23 08:44:16;;;;;;;4.22;1.38;;;;;;;29.02;27.24;98354.38;4817390;29;20077;-57
2023/04/23 08:46:47;;;;;;;5.95;1.90;;;;;;;29.34;29.74;98342.16;4835671;29;20137;-60
2023/04/23 08:49:18;;;;;;;3.42;1.60;;;;;;;29.39;22.65;98332.97;4835275;29;20057;-54
2023/04/23 08:51:55;;;;;;;6.05;1.85;;;;;;;29.35;26.62;98341.03;4828014;29;20050;-59
2023/04/23 08:54:26;;;;;;;3.20;1.58;;;;;;;29.05;30.08;98333.81;4816237;29;20146;-58
2023/04/23 08:56:57;;;;;;;1.55;1.20;;;;;;;28.95;26.88;98334.13;4817328;29;20415;-54
2023/04/23 08:59:33;;;;;;;2.35;1.35;;;;;;;28.66;33.31;98325.75;4835323;29;20132;-56
2023/04/23 09:02:08;;;;;;;6.43;1.27;;;;;;;28.61;32.73;98323.19;4835009;29;20062;-59
2023/04/23 09:04:38;;;;;;;3.55;1.40;;;;;;;28.44;33.04;98319.34;4835909;29;20053;-56
2023/04/23 09:07:10;;;;;;;5.28;1.80;;;;;;;28.77;23.93;98318.88;4835724;29;20062;-53
2023/04/23 09:09:40;;;;;;;2.67;1.60;;;;;;;28.74;33.27;98316.81;4836585;29;20137;-56
2023/04/23 09:12:10;;;;;;;8.55;1.52;;;;;;;28.72;29.93;98311.72;4835561;29;20057;-59
2023/04/23 09:14:39;;;;;;;5.15;1.60;;;;;;;28.47;26.84;98305.06;4835989;29;20066;-57
2023/04/23 09:17:09;;;;;;;2.72;1.30;;;;;;;28.36;34.07;98305.69;4836174;29;20049;-56
2023/04/23 09:19:39;;;;;;;9.25;1.85;;;;;;;28.09;34.48;98304.00;4836772;29;20107;-58
2023/04/23 09:22:10;;;;;;;3.20;1.50;;;;;;;28.13;30.22;98294.09;4835204;29;20054;-55
2023/04/23 09:24:42;;;;;;;4.78;1.40;;;;;;;28.09;32.93;98299.38;4835898;29;20066;-56
2023/04/23 09:27:12;;;;;;;4.80;1.55;;;;;;;28.02;33.65;98288.13;4835905;29;20153;-57
2023/04/23 09:29:44;;;;;;;4.40;1.58;;;;;;;27.95;31.55;98286.97;4835137;29;20057;-56
2023/04/23 09:32:13;;;;;;;4.25;1.30;;;;;;;28.54;24.23;98278.16;4835158;29;20046;-58
2023/04/23 09:34:44;;;;;;;3.67;1.60;;;;;;;28.93;31.70;98276.41;4835725;29;20490;-53
2023/04/23 09:37:17;;;;;;;5.45;1.23;;;;;;;28.59;32.59;98271.72;4834589;29;20049;-57
2023/04/23 09:39:47;;;;;;;3.97;1.35;;;;;;;28.37;28.47;98266.44;4836014;29;20073;-59
2023/04/23 09:42:16;;;;;;;8.63;1.42;;;;;;;28.12;34.04;98266.06;4835421;29;20050;-56
2023/04/23 09:44:56;;;;;;;3.90;1.40;;;;;;;27.82;33.66;98266.13;4835577;29;20581;-55
2023/04/23 09:47:25;;;;;;;4.40;1.30;;;;;;;27.82;32.28;98255.22;4835421;29;20050;-56
2023/04/23 09:49:55;;;;;;;4.55;1.50;;;;;;;27.68;34.51;98258.88;4834358;29;20560;-55
2023/04/23 09:52:25;;;;;;;4.57;1.27;;;;;;;27.90;29.50;98252.53;4826952;29;20062;-58
2023/04/23 09:54:58;;;;;;;9.68;1.77;;;;;;;28.21;33.72;98252.47;4830320;29;20112;-54
2023/04/23 09:57:28;;;;;;;3.25;1.42;;;;;;;28.10;36.01;98237.56;4835121;29;20057;-58
2023/04/23 09:59:57;;;;;;;4.38;1.40;;;;;;;28.04;35.70;98246.97;4827132;29;20051;-56
2023/04/23 10:02:47;;;;;;;6.47;1.58;;;;;;;27.92;35.07;98244.06;4833253;29;20161;-56
2023/04/23 10:05:19;;;;;;;2.47;1.33;;;;;;;27.76;35.50;98231.97;4833116;29;20054;-56
2023/04/23 10:07:58;;;;;;;5.32;1.38;;;;;;;28.01;33.57;98232.06;4835826;29;20555;-55
2023/04/23 10:10:28;;;;;;;3.65;1.63;;;;;;;28.16;34.65;98233.56;4818920;29;20053;-56
2023/04/23 10:12:59;;;;;;;4.90;1.70;;;;;;;28.59;23.61;98228.91;4831315;29;20042;-55
2023/04/23 10:15:29;;;;;;;6.75;1.77;;;;;;;28.74;31.21;98229.59;4834849;29;20061;-60
2023/04/23 10:17:59;;;;;;;4.13;1.42;;;;;;;28.73;32.65;98222.53;4823542;29;20053;-54
2023/04/23 10:20:29;;;;;;;1.75;1.27;;;;;;;28.41;31.44;98223.81;4835165;29;20113;-53
2023/04/23 10:23:00;;;;;;;6.97;1.60;;;;;;;28.55;29.45;98225.25;4819614;29;20056;-59
2023/04/23 10:25:31;;;;;;;5.25;1.60;;;;;;;28.33;32.81;98233.56;4835010;29;20367;-58
2023/04/23 10:28:03;;;;;;;5.15;1.45;;;;;;;28.45;30.00;98228.31;4835674;29;20065;-58
2023/04/23 10:30:34;;;;;;;5.88;1.30;;;;;;;28.47;32.35;98228.78;4834833;29;20070;-60
2023/04/23 10:33:05;;;;;;;7.57;1.70;;;;;;;28.73;24.99;98223.34;4830559;29;20064;-58
2023/04/23 10:35:47;;;;;;;2.55;1.40;;;;;;;29.08;25.33;98232.25;4835393;29;20046;-57
2023/04/23 10:38:17;;;;;;;5.07;1.50;;;;;;;29.05;28.28;98224.72;4818661;29;20932;-58
2023/04/23 10:40:50;;;;;;;3.83;1.23;;;;;;;28.87;27.16;98223.97;4835193;29;20060;-56
2023/04/23 10:43:19;;;;;;;3.58;1.20;;;;;;;28.72;27.26;98215.50;4834341;29;20049;-58
2023/04/23 10:45:49;;;;;;;2.92;1.40;;;;;;;28.68;31.93;98223.47;4835395;29;20076;-57
2023/04/23 10:48:20;;;;;;;6.57;1.48;;;;;;;28.31;32.69;98207.78;4834314;29;20085;-58
2023/04/23 10:50:59;;;;;;;2.33;1.30;;;;;;;28.17;33.91;98218.00;4835015;29;20100;-54
2023/04/23 10:53:51;;;;;;;6.03;1.70;;;;;;;28.06;33.69;98220.19;4826887;29;20097;-54
2023/04/23 10:56:21;;;;;;;7.20;1.75;;;;;;;27.94;35.34;98214.59;4834135;29;20054;-57
2023/04/23 10:58:50;;;;;;;8.15;1.55;;;;;;;27.68;35.44;98222.69;4834908;29;20065;-57
2023/04/23 11:01:24;;;;;;;4.40;1.70;;;;;;;27.49;35.29;98217.50;4834291;29;20130;-55
2023/04/23 11:04:57;;;;;;;3.10;1.20;;;;;;;27.46;34.72;98223.53;4816377;29;20057;-58
2023/04/23 11:07:31;;;;;;;9.10;1.52;;;;;;;27.55;32.72;98213.53;4832737;29;20050;-56
2023/04/23 11:10:12;;;;;;;6.47;1.55;;;;;;;27.36;35.30;98220.28;4801892;29;20061;-59
2023/04/23 11:12:43;;;;;;;4.95;1.48;;;;;;;27.52;31.90;98213.34;4831510;29;20053;-57
2023/04/23 11:15:15;;;;;;;10.52;2.67;;;;;;;27.57;29.00;98216.72;4833838;29;20064;-57
2023/04/23 11:17:46;;;;;;;8.93;1.50;;;;;;;27.74;27.40;98217.91;4834689;29;20060;-56
2023/04/23 11:20:20;;;;;;;6.18;1.60;;;;;;;28.31;26.45;98207.78;4834836;29;20523;-57
2023/04/23 11:22:53;;;;;;;4.40;1.77;;;;;;;28.10;31.96;98210.34;4834196;29;20046;-56
2023/04/23 11:25:26;;;;;;;6.57;1.58;;;;;;;27.89;33.89;98206.56;4833192;29;20133;-59
2023/04/23 11:28:00;;;;;;;6.90;1.45;;;;;;;28.49;25.02;98207.47;4834014;29;20060;-53
2023/04/23 11:30:30;;;;;;;4.85;1.65;;;;;;;28.32;31.49;98210.19;4823140;29;20135;-54
2023/04/23 11:32:59;;;;;;;6.40;1.60;;;;;;;28.15;31.15;98207.44;4833356;29;20069;-54
2023/04/23 11:35:38;;;;;;;14.10;1.75;;;;;;;28.03;31.93;98209.97;4834739;29;20058;-56
2023/04/23 11:38:09;;;;;;;6.32;1.40;;;;;;;27.96;34.10;98202.28;4833560;29;20153;-56
2023/04/23 11:41:11;;;;;;;7.55;1.52;;;;;;;27.73;33.95;98198.06;4833953;29;20054;-54
2023/04/23 11:43:42;;;;;;;5.75;1.92;;;;;;;27.56;35.61;98198.00;4833455;29;20058;-59
2023/04/23 11:46:14;;;;;;;5.63;1.90;;;;;;;27.46;33.88;98196.34;4832858;29;20097;-54
2023/04/23 11:48:44;;;;;;;5.60;1.45;;;;;;;27.49;30.37;98189.47;4834280;29;20054;-55
2023/04/23 11:51:14;;;;;;;5.25;1.67;;;;;;;27.49;34.87;98186.75;4822706;29;20145;-58
2023/04/23 11:53:47;;;;;;;5.30;1.83;;;;;;;27.58;27.32;98191.13;4840088;29;20054;-55
2023/04/23 11:56:19;;;;;;;4.35;1.40;;;;;;;27.53;33.63;98188.53;4829212;29;20098;-57